Terminal Aerodrome Forecast
Issued by NWS

Current Version | Previous Version | Text Only | Print | Product List | Glossary On
Versions: 1 2 3 4 5 6 7 8 9 10 11 12 13 14 15 16 17 18 19
000
FTUS42 TJSJ 110500
TAFIST
TAF
TIST 110539Z 1106/1206 11010KT P6SM VCSH SCT020 BKN040
      TEMPO 1106/1108 11012G18KT SHRA SCT020 BKN030
     FM111200 10012G22KT P6SM VCSH FEW030 BKN050
     FM112300 09012KT P6SM FEW030=

USA.gov is the U.S. government's official web portal to all federal, state and local government web resources and services.